createdAt,value
2017-06-20T12:25:04.155Z,7300
2017-06-20T12:26:12.841Z,7468
2017-06-20T12:27:21.445Z,7468
2017-06-20T12:28:30.029Z,7340
2017-06-20T12:29:39.101Z,6968
2017-06-20T12:30:48.067Z,6880
2017-06-20T12:31:57.005Z,6608
2017-06-20T12:33:06.328Z,6448
2017-06-20T12:34:15.276Z,6300
2017-06-20T12:35:23.894Z,6740
2017-06-20T12:36:33.211Z,7072
2017-06-20T12:37:42.241Z,7384
2017-06-20T12:38:50.964Z,7644
2017-06-20T12:40:00.184Z,7400
2017-06-20T12:41:08.790Z,7504
2017-06-20T12:42:17.380Z,8052
2017-06-20T12:43:27.689Z,8256
2017-06-20T12:44:36.277Z,8628
2017-06-20T12:45:45.984Z,9020
2017-06-20T12:46:54.973Z,9536
2017-06-20T12:48:03.571Z,10096
2017-06-20T12:49:12.540Z,10608
2017-06-20T12:50:21.892Z,11004
2017-06-20T12:51:30.922Z,11432
2017-06-20T12:52:39.829Z,11680
2017-06-20T12:53:49.049Z,11688
2017-06-20T12:54:57.952Z,11560
2017-06-20T12:56:06.536Z,11536
2017-06-20T12:57:15.132Z,11500
2017-06-20T12:58:24.049Z,11360
2017-06-20T12:59:32.952Z,11004
2017-06-20T13:00:42.007Z,9744
2017-06-20T13:01:50.633Z,8472
2017-06-20T13:02:59.546Z,8512
2017-06-20T13:04:08.455Z,8672
2017-06-20T13:05:17.683Z,8348
2017-06-20T13:06:26.948Z,8200
2017-06-20T13:07:35.852Z,8264
2017-06-20T13:08:44.442Z,7904
2017-06-20T13:09:53.662Z,7792
2017-06-20T13:11:02.567Z,7560
2017-06-20T13:12:11.379Z,7968
2017-06-20T13:13:20.646Z,8008
2017-06-20T13:14:29.867Z,7856
2017-06-20T13:15:38.773Z,7752
2017-06-20T13:16:47.677Z,7160
2017-06-20T13:17:56.578Z,7576
2017-06-20T13:19:05.202Z,7656
2017-06-20T13:20:13.820Z,7636
2017-06-20T13:21:22.414Z,7312
2017-06-20T13:22:31.753Z,7136
2017-06-20T13:23:41.183Z,6932
2017-06-20T13:24:50.355Z,6908
2017-06-20T13:25:59.461Z,6976
2017-06-20T13:27:08.396Z,7144
2017-06-20T13:28:17.109Z,7308
2017-06-20T13:29:25.702Z,7384
2017-06-20T13:30:34.298Z,7312
2017-06-20T13:31:42.885Z,7328
2017-06-20T13:32:52.104Z,7388
2017-06-20T13:34:01.006Z,7488
2017-06-20T13:35:09.912Z,7516
2017-06-20T13:36:18.508Z,7512
2017-06-20T13:37:27.419Z,7464
2017-06-20T13:38:36.671Z,7748
2017-06-20T13:39:45.275Z,7532
2017-06-20T13:40:53.982Z,7888
2017-06-20T13:42:02.902Z,7944
2017-06-20T13:43:12.458Z,7900
2017-06-20T13:44:21.045Z,7728
2017-06-20T13:45:29.958Z,7568
2017-06-20T13:46:38.547Z,7392
2017-06-20T13:47:47.135Z,7188
2017-06-20T13:48:56.040Z,7056
2017-06-20T13:50:04.943Z,6940
2017-06-20T13:51:14.206Z,7140
2017-06-20T13:52:23.751Z,7524
2017-06-20T13:53:32.660Z,7392
2017-06-20T13:54:41.563Z,6796
2017-06-20T13:55:50.790Z,6664
2017-06-20T13:56:59.701Z,6596
2017-06-20T13:58:08.288Z,6804
2017-06-20T13:59:17.193Z,7068
2017-06-20T14:00:26.100Z,7416
2017-06-20T14:01:34.692Z,8364
2017-06-20T14:02:44.001Z,8196
2017-06-20T14:03:52.608Z,7952
2017-06-20T14:05:01.200Z,7788
2017-06-20T14:06:09.793Z,7884
2017-06-20T14:07:18.698Z,7836
2017-06-20T14:08:27.918Z,7752
2017-06-20T14:09:36.838Z,7984
2017-06-20T14:10:46.080Z,8216
2017-06-20T14:11:54.985Z,8556
2017-06-20T14:13:04.204Z,8852
2017-06-20T14:14:12.792Z,9328
2017-06-20T14:15:21.741Z,9524
2017-06-20T14:16:30.468Z,9724
2017-06-20T14:17:39.374Z,10004
2017-06-20T14:18:47.960Z,10220
2017-06-20T14:19:56.674Z,10488
2017-06-20T14:21:05.823Z,10796
2017-06-20T14:22:15.339Z,11060
2017-06-20T14:23:24.674Z,11280
2017-06-20T14:24:33.586Z,11540
2017-06-20T14:25:42.541Z,11896
2017-06-20T14:26:51.135Z,11944
2017-06-20T14:28:00.369Z,12052
2017-06-20T14:29:09.777Z,12260
2017-06-20T14:30:19.153Z,12620
2017-06-20T14:31:27.881Z,12964
2017-06-20T14:32:36.840Z,12532
2017-06-20T14:33:45.745Z,13092
2017-06-20T14:34:55.274Z,13368
2017-06-20T14:36:04.509Z,13588
2017-06-20T14:37:14.282Z,13484
2017-06-20T14:38:23.417Z,13188
2017-06-20T14:39:32.937Z,12588
2017-06-20T14:40:41.853Z,11696
2017-06-20T14:41:51.308Z,10732
2017-06-20T14:43:00.219Z,9804
2017-06-20T14:44:09.445Z,8988
2017-06-20T14:45:18.695Z,8364
2017-06-20T14:46:28.406Z,7736
2017-06-20T14:47:37.049Z,7124
2017-06-20T14:48:46.307Z,6680
2017-06-20T14:49:55.371Z,6372
2017-06-20T14:51:04.390Z,6108
2017-06-20T14:52:13.397Z,5924
2017-06-20T14:53:22.281Z,5832
2017-06-20T14:54:31.097Z,5808
2017-06-20T14:55:40.054Z,5804
2017-06-20T14:56:48.965Z,5820
2017-06-20T14:57:58.559Z,5872
2017-06-20T14:59:07.521Z,5868
2017-06-20T15:00:16.485Z,5760
2017-06-20T15:01:25.717Z,5632
2017-06-20T15:02:34.624Z,5540
2017-06-20T15:03:43.842Z,5420
2017-06-20T15:04:53.069Z,5312
2017-06-20T15:06:01.660Z,5276
2017-06-20T15:07:10.881Z,5300
2017-06-20T15:08:19.831Z,5336
2017-06-20T15:09:28.877Z,5356
2017-06-20T15:10:38.142Z,5296
2017-06-20T15:11:46.809Z,5224
2017-06-20T15:12:55.813Z,5232
2017-06-20T15:14:04.460Z,5260
2017-06-20T15:15:13.376Z,5260
2017-06-20T15:16:22.475Z,5316
2017-06-20T15:17:31.134Z,5344
2017-06-20T15:18:40.400Z,5312
2017-06-20T15:19:49.078Z,5364
2017-06-20T15:20:58.303Z,5376
2017-06-20T15:22:08.766Z,5340
2017-06-20T15:23:17.418Z,5372
2017-06-20T15:24:26.337Z,5380
2017-06-20T15:25:35.286Z,5348
2017-06-20T15:26:43.881Z,5324
2017-06-20T15:27:52.794Z,5280
2017-06-20T15:29:01.753Z,5312
2017-06-20T15:30:11.852Z,5364
2017-06-20T15:31:20.440Z,5392
2017-06-20T15:32:29.378Z,5380
2017-06-20T15:33:38.422Z,5352
2017-06-20T15:34:47.347Z,5340
2017-06-20T15:35:56.252Z,5364
2017-06-20T15:37:04.839Z,5476
2017-06-20T15:38:14.112Z,5600
2017-06-20T15:39:23.081Z,5584
2017-06-20T15:40:32.305Z,5436
2017-06-20T15:41:40.892Z,5268
2017-06-20T15:42:50.117Z,5160
2017-06-20T15:43:58.703Z,5604
2017-06-20T15:45:07.607Z,5788
2017-06-20T15:46:16.512Z,5968
2017-06-20T15:47:25.731Z,6028
2017-06-20T15:48:34.616Z,5800
2017-06-20T15:49:43.838Z,5256
2017-06-20T15:50:52.741Z,5320
2017-06-20T15:52:01.327Z,5292
2017-06-20T15:53:10.233Z,5260
2017-06-20T15:54:19.449Z,5256
2017-06-20T15:55:28.354Z,5520
2017-06-20T15:56:37.580Z,5512
2017-06-20T15:57:46.479Z,5512
2017-06-20T15:58:55.390Z,5620
2017-06-20T16:00:03.983Z,5884
2017-06-20T16:01:13.267Z,6020
2017-06-20T16:02:22.931Z,6316
2017-06-20T16:03:31.835Z,6312
2017-06-20T16:04:40.421Z,6544
2017-06-20T16:05:49.018Z,7280
2017-06-20T16:06:57.600Z,7804
2017-06-20T16:08:06.822Z,8640
2017-06-20T16:09:15.723Z,9104
2017-06-20T16:10:24.684Z,9276
2017-06-20T16:11:33.994Z,9300
2017-06-20T16:12:43.557Z,9628
2017-06-20T16:13:52.145Z,9584
2017-06-20T16:15:00.831Z,9404
2017-06-20T16:16:10.047Z,9132
2017-06-20T16:17:19.270Z,8780
2017-06-20T16:18:28.174Z,8308
2017-06-20T16:19:36.760Z,7912
2017-06-20T16:20:45.706Z,7572
2017-06-20T16:21:54.293Z,7520
2017-06-20T16:23:02.881Z,7280
2017-06-20T16:24:11.787Z,6892
2017-06-20T16:25:20.687Z,6460
2017-06-20T16:26:29.274Z,6316
2017-06-20T16:27:38.498Z,6208
2017-06-20T16:28:47.408Z,6136
2017-06-20T16:29:56.951Z,5760
2017-06-20T16:31:06.205Z,5544
2017-06-20T16:32:15.427Z,5420
2017-06-20T16:33:24.328Z,5404
2017-06-20T16:34:33.563Z,5484
2017-06-20T16:35:42.511Z,5564
2017-06-20T16:36:51.098Z,5620
2017-06-20T16:38:01.355Z,5612
2017-06-20T16:39:10.594Z,5640
2017-06-20T16:40:19.689Z,5696
2017-06-20T16:41:28.747Z,5728
2017-06-20T16:42:37.653Z,5752
2017-06-20T16:43:46.238Z,5800
2017-06-20T16:44:55.299Z,5916
2017-06-20T16:46:04.273Z,6000
2017-06-20T16:47:12.859Z,5956
2017-06-20T16:48:21.761Z,5848
2017-06-20T16:49:30.720Z,5760
2017-06-20T16:50:39.308Z,5688
2017-06-20T16:51:47.942Z,5688
2017-06-20T16:52:57.797Z,5724
2017-06-20T16:54:06.700Z,5668
2017-06-20T16:55:15.604Z,5588
2017-06-20T16:56:24.185Z,5424
2017-06-20T16:57:33.083Z,5272
2017-06-20T16:58:41.992Z,5168
2017-06-20T16:59:51.206Z,5096
2017-06-20T17:00:59.790Z,4980
2017-06-20T17:02:08.694Z,4876
2017-06-20T17:03:17.283Z,4824
2017-06-20T17:04:26.522Z,4892
2017-06-20T17:05:35.750Z,4920
2017-06-20T17:06:44.658Z,5020
2017-06-20T17:07:53.563Z,5072
2017-06-20T17:09:02.783Z,5148
2017-06-20T17:10:11.365Z,5216
2017-06-20T17:11:20.292Z,5240
2017-06-20T17:12:29.831Z,5236
2017-06-20T17:13:38.730Z,5560
2017-06-20T17:14:47.948Z,5744
2017-06-20T17:15:56.559Z,6220
2017-06-20T17:17:05.462Z,6628
2017-06-20T17:18:14.736Z,7032
2017-06-20T17:19:24.027Z,7456
2017-06-20T17:20:32.966Z,7624
2017-06-20T17:21:42.189Z,7624
2017-06-20T17:22:51.094Z,7480
2017-06-20T17:24:00.002Z,7296
2017-06-20T17:25:09.221Z,7052
2017-06-20T17:26:18.128Z,6696
2017-06-20T17:27:26.714Z,6444
2017-06-20T17:28:35.931Z,6104
2017-06-20T17:29:44.522Z,5712
2017-06-20T17:30:53.109Z,5320
2017-06-20T17:32:01.704Z,4972
2017-06-20T17:33:10.295Z,4688
2017-06-20T17:34:19.202Z,4496
2017-06-20T17:35:28.142Z,4312
2017-06-20T17:36:37.107Z,4184
2017-06-20T17:37:46.497Z,4072
2017-06-20T17:38:55.556Z,3948
2017-06-20T17:40:04.660Z,3840
2017-06-20T17:41:13.625Z,3744
2017-06-20T17:42:22.551Z,3652
2017-06-20T17:43:31.779Z,3592
2017-06-20T17:44:40.730Z,3556
2017-06-20T17:45:49.647Z,3524
2017-06-20T17:46:58.907Z,3464
2017-06-20T17:48:07.837Z,3400
2017-06-20T17:49:16.894Z,3320
2017-06-20T17:50:25.871Z,3244
2017-06-20T17:51:35.131Z,3136
2017-06-20T17:52:43.712Z,3092
2017-06-20T17:53:52.713Z,3048
2017-06-20T17:55:01.619Z,3024
2017-06-20T17:56:10.210Z,3016
2017-06-20T17:57:19.425Z,3020
2017-06-20T17:58:28.330Z,3004
2017-06-20T17:59:37.235Z,3012
2017-06-20T18:00:45.833Z,3012
2017-06-20T18:01:54.440Z,2996
2017-06-20T18:03:03.207Z,2976
2017-06-20T18:04:11.806Z,2952
2017-06-20T18:05:21.024Z,2932
2017-06-20T18:06:29.611Z,2928
2017-06-20T18:07:38.918Z,2920
2017-06-20T18:08:48.285Z,2884
2017-06-20T18:09:56.867Z,2868
2017-06-20T18:11:06.527Z,2848
2017-06-20T18:12:15.765Z,2848
2017-06-20T18:13:25.331Z,2852
2017-06-20T18:14:34.079Z,2832
2017-06-20T18:15:42.988Z,2816
2017-06-20T18:16:51.895Z,2796
2017-06-20T18:18:01.156Z,2760
2017-06-20T18:19:10.312Z,2716
2017-06-20T18:20:19.703Z,2656
2017-06-20T18:21:28.410Z,2600
2017-06-20T18:22:37.946Z,2556
2017-06-20T18:23:46.845Z,2508
2017-06-20T18:24:55.785Z,2468
2017-06-20T18:26:04.418Z,2424
2017-06-20T18:27:13.639Z,2388
2017-06-20T18:28:22.580Z,2364
2017-06-20T18:29:31.168Z,2320
2017-06-20T18:30:40.414Z,2292
2017-06-20T18:31:49.215Z,2256
2017-06-20T18:32:57.801Z,2232
2017-06-20T18:34:06.731Z,2208
2017-06-20T18:35:15.960Z,2184
2017-06-20T18:36:24.867Z,2164
2017-06-20T18:37:34.084Z,2140
2017-06-20T18:38:42.685Z,2116
2017-06-20T18:39:51.913Z,2108
2017-06-20T18:41:00.563Z,2092
2017-06-20T18:42:09.510Z,2072
2017-06-20T18:43:18.217Z,2044
2017-06-20T18:44:26.806Z,2016
2017-06-20T18:45:35.758Z,1980
2017-06-20T18:46:44.659Z,1952
2017-06-20T18:47:53.244Z,1932
2017-06-20T18:49:02.462Z,1908
2017-06-20T18:50:11.682Z,1880
2017-06-20T18:51:20.586Z,1860
2017-06-20T18:52:29.800Z,1836
2017-06-20T18:53:38.383Z,1812
2017-06-20T18:54:47.597Z,1784
2017-06-20T18:55:56.252Z,1752
2017-06-20T18:57:04.837Z,1716
2017-06-20T18:58:13.754Z,1684
2017-06-20T18:59:22.653Z,1656
2017-06-20T19:00:31.556Z,1624
2017-06-20T19:01:40.147Z,1588
2017-06-20T19:02:49.411Z,1556
2017-06-20T19:03:58.006Z,1528
2017-06-20T19:05:06.925Z,1492
2017-06-20T19:06:15.837Z,1456
2017-06-20T19:07:24.419Z,1424
2017-06-20T19:08:33.009Z,1388
2017-06-20T19:09:41.914Z,1356
2017-06-20T19:10:50.814Z,1320
2017-06-20T19:12:00.035Z,1280
2017-06-20T19:13:08.930Z,1244
2017-06-20T19:14:17.860Z,1192
2017-06-20T19:15:26.539Z,1156
2017-06-20T19:16:35.348Z,1108
2017-06-20T19:17:44.465Z,1072
2017-06-20T19:18:53.172Z,1028
2017-06-20T19:20:02.147Z,980
2017-06-20T19:21:11.103Z,936
2017-06-20T19:22:19.686Z,892
2017-06-20T19:23:28.865Z,852
2017-06-20T19:24:37.491Z,816
2017-06-20T19:25:46.260Z,776
2017-06-20T19:26:54.871Z,740
2017-06-20T19:28:04.411Z,704
2017-06-20T19:29:13.778Z,668
2017-06-20T19:30:22.745Z,636
2017-06-20T19:31:31.501Z,600
2017-06-20T19:32:40.413Z,568
2017-06-20T19:33:49.353Z,532
2017-06-20T19:34:58.568Z,504
2017-06-20T19:36:08.105Z,476
2017-06-20T19:37:16.685Z,444
2017-06-20T19:38:25.898Z,416
2017-06-20T19:39:35.129Z,388
2017-06-20T19:40:44.351Z,364
2017-06-20T19:41:53.626Z,340
2017-06-20T19:43:02.234Z,312
2017-06-20T19:44:11.136Z,292
2017-06-20T19:45:20.716Z,272
2017-06-20T19:46:29.622Z,256
2017-06-20T19:47:38.206Z,240
2017-06-20T19:48:46.786Z,220
2017-06-20T19:49:55.381Z,208
2017-06-20T19:51:04.289Z,192
2017-06-20T19:52:13.512Z,176
2017-06-20T19:53:22.750Z,160
2017-06-20T19:54:31.970Z,148
2017-06-20T19:55:41.558Z,132
2017-06-20T19:56:50.177Z,120
2017-06-20T19:57:59.396Z,112
2017-06-20T19:59:08.098Z,144
2017-06-20T20:00:16.699Z,144
2017-06-20T20:01:25.980Z,136
2017-06-20T20:02:34.881Z,128
2017-06-20T20:03:43.663Z,124
2017-06-20T20:04:52.413Z,116
2017-06-20T20:06:01.319Z,112
2017-06-20T20:07:10.607Z,108
2017-06-20T20:08:19.545Z,100
2017-06-20T20:09:28.546Z,96
2017-06-20T20:10:37.392Z,92
2017-06-20T20:11:46.423Z,88
2017-06-20T20:12:55.778Z,84
2017-06-20T20:14:04.864Z,80
2017-06-20T20:15:13.975Z,20
2017-06-20T20:16:23.538Z,20
2017-06-20T20:17:32.249Z,20
2017-06-20T20:18:40.837Z,16
2017-06-20T20:19:50.044Z,16
2017-06-20T20:20:58.716Z,12
2017-06-20T20:22:07.673Z,12
2017-06-20T20:23:16.614Z,12
2017-06-20T20:24:25.750Z,8
2017-06-20T20:25:35.008Z,8
2017-06-20T20:26:43.904Z,4
2017-06-20T20:27:53.246Z,8
2017-06-20T20:29:01.860Z,4
2017-06-20T20:30:10.833Z,4
2017-06-20T20:31:19.542Z,4
2017-06-20T20:32:28.961Z,4
2017-06-20T20:33:37.912Z,0
2017-06-20T20:34:46.837Z,4
2017-06-20T20:35:55.737Z,4
2017-06-20T20:37:04.722Z,4
2017-06-20T20:38:13.302Z,0
2017-06-20T20:39:21.906Z,0
2017-06-20T20:40:30.692Z,0
2017-06-20T20:41:40.211Z,0
2017-06-20T20:42:48.917Z,0
2017-06-20T20:43:58.141Z,0
2017-06-20T20:45:07.087Z,0
2017-06-20T20:46:15.993Z,0
2017-06-20T20:47:24.673Z,0
2017-06-20T20:48:33.620Z,0
2017-06-20T20:49:42.934Z,0
2017-06-20T20:50:51.829Z,0
2017-06-20T20:52:00.410Z,0
2017-06-20T20:53:09.311Z,0
2017-06-20T20:54:18.218Z,0
2017-06-20T20:55:27.449Z,0
2017-06-20T20:56:36.047Z,0
2017-06-20T20:57:45.015Z,0
2017-06-20T20:58:53.821Z,0
2017-06-20T21:00:02.423Z,0
2017-06-20T21:01:11.728Z,0
2017-06-20T21:02:20.741Z,0
2017-06-20T21:03:29.955Z,0
2017-06-20T21:04:38.851Z,0
2017-06-20T21:05:47.748Z,0
2017-06-20T21:06:56.645Z,0
2017-06-20T21:08:05.541Z,0
2017-06-20T21:09:14.439Z,0
2017-06-20T21:10:23.160Z,0
2017-06-20T21:11:32.074Z,0
2017-06-20T21:12:41.028Z,0
2017-06-20T21:13:49.612Z,0
2017-06-20T21:14:58.659Z,0
2017-06-20T21:16:07.295Z,0
2017-06-20T21:17:16.365Z,0
2017-06-20T21:18:24.970Z,0
2017-06-20T21:19:34.187Z,0
2017-06-20T21:20:42.782Z,0
2017-06-20T21:21:51.736Z,0
2017-06-20T21:23:00.847Z,0
2017-06-20T21:24:10.059Z,0
2017-06-20T21:25:18.636Z,0
2017-06-20T21:26:27.220Z,0
2017-06-20T21:27:35.802Z,0
2017-06-20T21:28:44.384Z,0
2017-06-20T21:29:53.276Z,0
2017-06-20T21:31:02.172Z,0
2017-06-20T21:32:11.071Z,0
2017-06-20T21:33:19.987Z,0
2017-06-20T21:34:28.634Z,0
2017-06-20T21:35:37.211Z,0
2017-06-20T21:36:46.109Z,0
2017-06-20T21:37:55.033Z,0
2017-06-20T21:39:03.929Z,0
2017-06-20T21:40:12.511Z,0
2017-06-20T21:41:21.730Z,0
2017-06-20T21:42:30.310Z,0
2017-06-20T21:43:39.204Z,0
2017-06-20T21:44:47.783Z,0
2017-06-20T21:45:56.679Z,0
2017-06-20T21:47:05.946Z,0
2017-06-20T21:48:14.868Z,0
2017-06-20T21:49:23.812Z,0
2017-06-20T21:50:33.073Z,0
2017-06-20T21:51:42.008Z,0
2017-06-20T21:52:50.588Z,0
2017-06-20T21:53:59.171Z,0
2017-06-20T21:55:08.704Z,0
2017-06-20T21:56:18.235Z,0
2017-06-20T21:57:26.819Z,0
2017-06-20T21:58:35.717Z,0
2017-06-20T21:59:44.295Z,0
2017-06-20T22:00:53.198Z,0
2017-06-20T22:02:01.777Z,0
2017-06-20T22:03:10.361Z,0
2017-06-20T22:04:19.257Z,0
2017-06-20T22:05:28.467Z,0
2017-06-20T22:06:37.680Z,0
2017-06-20T22:07:46.260Z,0
2017-06-20T22:08:55.158Z,0
2017-06-20T22:10:03.739Z,0
2017-06-20T22:11:12.642Z,0
2017-06-20T22:12:21.227Z,0
2017-06-20T22:13:30.131Z,0
2017-06-20T22:14:39.342Z,0
2017-06-20T22:15:48.235Z,0
2017-06-20T22:16:56.812Z,0
2017-06-20T22:18:06.022Z,0
2017-06-20T22:19:14.920Z,0
2017-06-20T22:20:23.814Z,0
2017-06-20T22:21:32.394Z,0
2017-06-20T22:22:41.010Z,0
2017-06-20T22:23:50.542Z,0
2017-06-20T22:24:59.118Z,0
2017-06-20T22:26:08.015Z,0
2017-06-20T22:27:16.597Z,0
2017-06-20T22:28:25.491Z,0
2017-06-20T22:29:34.389Z,0
2017-06-20T22:30:43.282Z,0
2017-06-20T22:31:52.493Z,0
2017-06-20T22:33:01.075Z,0
2017-06-20T22:34:09.969Z,0
2017-06-20T22:35:18.909Z,0
2017-06-20T22:36:28.125Z,0
2017-06-20T22:37:36.713Z,0
2017-06-20T22:38:45.923Z,0
2017-06-20T22:39:55.137Z,0
2017-06-20T22:41:03.714Z,0
2017-06-20T22:42:12.926Z,0
2017-06-20T22:43:22.145Z,0
2017-06-20T22:44:30.775Z,0
2017-06-20T22:45:39.676Z,0
2017-06-20T22:46:48.896Z,0
2017-06-20T22:47:57.478Z,0
2017-06-20T22:49:07.008Z,0
2017-06-20T22:50:15.917Z,0
2017-06-20T22:51:24.497Z,0
2017-06-20T22:52:33.706Z,0
2017-06-20T22:53:42.606Z,0
2017-06-20T22:54:51.184Z,0
2017-06-20T22:56:00.086Z,0
2017-06-20T22:57:08.666Z,0
2017-06-20T22:58:17.876Z,0
2017-06-20T22:59:26.774Z,0
2017-06-20T23:00:35.983Z,0
2017-06-20T23:01:44.924Z,0
2017-06-20T23:02:53.817Z,0
2017-06-20T23:04:02.393Z,0
2017-06-20T23:05:11.610Z,0
2017-06-20T23:06:20.187Z,0
2017-06-20T23:07:29.399Z,0
2017-06-20T23:08:37.977Z,0
2017-06-20T23:09:46.557Z,0
2017-06-20T23:10:55.770Z,0
2017-06-20T23:12:04.665Z,0
2017-06-20T23:13:13.559Z,0
2017-06-20T23:14:22.451Z,0
2017-06-20T23:15:31.344Z,0
2017-06-20T23:16:40.563Z,0
2017-06-20T23:17:49.466Z,0
2017-06-20T23:18:58.041Z,0
2017-06-20T23:20:06.626Z,0
2017-06-20T23:21:15.838Z,0
2017-06-20T23:22:25.054Z,0
2017-06-20T23:23:33.945Z,0
2017-06-20T23:24:42.530Z,0
2017-06-20T23:25:51.109Z,0
2017-06-20T23:27:00.002Z,0
2017-06-20T23:28:08.584Z,0
2017-06-20T23:29:17.797Z,0
2017-06-20T23:30:27.020Z,0
2017-06-20T23:31:35.600Z,0
2017-06-20T23:32:48.210Z,0
2017-06-20T23:33:57.108Z,0
2017-06-20T23:35:06.007Z,0
2017-06-20T23:36:14.604Z,0
2017-06-20T23:37:23.500Z,0
2017-06-20T23:38:32.407Z,0
2017-06-20T23:39:40.990Z,0
2017-06-20T23:40:49.887Z,0
2017-06-20T23:41:58.463Z,0
2017-06-20T23:43:07.357Z,0
2017-06-20T23:44:16.254Z,0
2017-06-20T23:45:25.149Z,0
2017-06-20T23:46:33.726Z,0
2017-06-20T23:47:42.624Z,0
2017-06-20T23:48:51.834Z,0
2017-06-20T23:50:00.730Z,0
2017-06-20T23:51:09.943Z,0
2017-06-20T23:52:18.836Z,0
2017-06-20T23:53:27.731Z,0
2017-06-20T23:54:36.627Z,0
2017-06-20T23:55:45.201Z,0
2017-06-20T23:56:54.098Z,0
2017-06-20T23:58:02.992Z,0
2017-06-20T23:59:11.886Z,0
